createdAt,value
2017-11-20T00:00:57.769Z,61.96
2017-11-20T00:01:57.769Z,62.34
2017-11-20T00:02:57.755Z,62.24
2017-11-20T00:03:57.749Z,62.24
2017-11-20T00:04:57.746Z,62.72
2017-11-20T00:05:57.736Z,62.24
2017-11-20T00:06:57.729Z,62.34
2017-11-20T00:07:57.725Z,62.24
2017-11-20T00:08:57.719Z,62.53
2017-11-20T00:09:57.712Z,63.39
2017-11-20T00:10:57.707Z,63.29
2017-11-20T00:11:57.702Z,63.20
2017-11-20T00:12:57.696Z,63.29
2017-11-20T00:13:57.689Z,63.76
2017-11-20T00:14:57.682Z,63.57
2017-11-20T00:15:57.685Z,63.67
2017-11-20T00:16:57.671Z,63.57
2017-11-20T00:17:57.715Z,62.91
2017-11-20T00:18:57.658Z,63.39
2017-11-20T00:19:57.653Z,63.76
2017-11-20T00:20:57.646Z,63.76
2017-11-20T00:21:57.641Z,64.23
2017-11-20T00:22:57.634Z,63.29
2017-11-20T00:23:57.628Z,63.39
2017-11-20T00:24:57.623Z,64.14
2017-11-20T00:25:57.616Z,64.14
2017-11-20T00:26:57.611Z,64.14
2017-11-20T00:27:57.605Z,64.33
2017-11-20T00:28:57.598Z,63.76
2017-11-20T00:29:57.592Z,64.04
2017-11-20T00:30:57.586Z,64.33
2017-11-20T00:31:57.578Z,64.04
2017-11-20T00:32:57.573Z,64.61
2017-11-20T00:33:57.566Z,65.00
2017-11-20T00:34:57.563Z,65.37
2017-11-20T00:35:57.555Z,65.28
2017-11-20T00:36:57.548Z,65.47
2017-11-20T00:37:57.543Z,65.56
2017-11-20T00:38:57.546Z,65.47
2017-11-20T00:39:57.530Z,66.22
2017-11-20T00:40:57.524Z,65.28
2017-11-20T00:41:57.517Z,65.37
2017-11-20T00:42:57.513Z,65.28
2017-11-20T00:43:57.506Z,65.09
2017-11-20T00:44:57.500Z,65.00
2017-11-20T00:45:57.493Z,64.52
2017-11-20T00:46:57.486Z,64.81
2017-11-20T00:47:57.481Z,64.33
2017-11-20T00:48:57.474Z,63.95
2017-11-20T00:49:57.468Z,64.14
2017-11-20T00:50:57.461Z,64.04
2017-11-20T00:51:57.456Z,64.33
2017-11-20T00:52:57.450Z,64.61
2017-11-20T00:53:57.441Z,63.85
2017-11-20T00:54:57.436Z,64.14
2017-11-20T00:55:57.431Z,64.61
2017-11-20T00:56:57.425Z,64.23
2017-11-20T00:57:57.416Z,63.48
2017-11-20T00:58:57.411Z,63.57
2017-11-20T00:59:57.404Z,63.57
2017-11-20T01:00:57.398Z,64.04
2017-11-20T01:01:57.394Z,64.04
2017-11-20T01:02:57.386Z,64.14
2017-11-20T01:03:57.378Z,63.85
2017-11-20T01:04:57.375Z,63.76
2017-11-20T01:05:57.367Z,63.57
2017-11-20T01:06:57.361Z,63.67
2017-11-20T01:07:57.355Z,64.04
2017-11-20T01:08:57.349Z,63.95
2017-11-20T01:09:57.341Z,63.39
2017-11-20T01:10:57.335Z,63.48
2017-11-20T01:11:57.333Z,63.67
2017-11-20T01:12:57.323Z,63.85
2017-11-20T01:13:57.316Z,63.29
2017-11-20T01:14:57.310Z,63.39
2017-11-20T01:15:57.354Z,63.85
2017-11-20T01:16:57.317Z,64.04
2017-11-20T01:17:57.291Z,63.20
2017-11-20T01:18:57.292Z,62.24
2017-11-20T01:19:57.279Z,62.72
2017-11-20T01:20:57.274Z,62.72
2017-11-20T01:21:57.266Z,63.39
2017-11-20T01:22:57.261Z,63.29
2017-11-20T01:23:57.256Z,63.10
2017-11-20T01:24:57.300Z,63.48
2017-11-20T01:25:57.242Z,63.76
2017-11-20T01:26:57.236Z,64.14
2017-11-20T01:27:57.233Z,64.14
2017-11-20T01:28:57.224Z,63.95
2017-11-20T01:29:57.216Z,64.58
2017-11-20T01:30:57.210Z,64.52
2017-11-20T01:31:57.204Z,64.14
2017-11-20T01:32:57.200Z,63.92
2017-11-20T01:33:57.193Z,64.30
2017-11-20T01:34:57.185Z,64.39
2017-11-20T01:35:57.180Z,64.30
2017-11-20T01:36:57.173Z,65.25
2017-11-20T01:37:57.170Z,64.96
2017-11-20T01:38:57.160Z,64.77
2017-11-20T01:39:57.155Z,65.15
2017-11-20T01:40:57.148Z,64.39
2017-11-20T01:41:57.141Z,64.30
2017-11-20T01:42:57.135Z,64.20
2017-11-20T01:43:57.180Z,64.96
2017-11-20T01:44:57.124Z,64.49
2017-11-20T01:45:57.114Z,63.92
2017-11-20T01:46:57.110Z,64.52
2017-11-20T01:47:57.104Z,64.20
2017-11-20T01:48:57.096Z,64.68
2017-11-20T01:49:57.090Z,63.76
2017-11-20T01:50:57.084Z,64.11
2017-11-20T01:51:57.078Z,63.67
2017-11-20T01:52:57.073Z,63.85
2017-11-20T01:53:57.065Z,63.67
2017-11-20T01:54:57.057Z,64.52
2017-11-20T01:55:57.051Z,64.42
2017-11-20T01:56:57.046Z,63.29
2017-11-20T01:57:57.038Z,63.10
2017-11-20T01:58:57.033Z,63.85
2017-11-20T01:59:57.026Z,64.14
2017-11-20T02:00:57.021Z,63.95
2017-11-20T02:01:57.014Z,64.14
2017-11-20T02:02:57.007Z,64.52
2017-11-20T02:03:57.001Z,63.95
2017-11-20T02:04:56.996Z,64.42
2017-11-20T02:05:56.988Z,64.33
2017-11-20T02:06:56.981Z,64.61
2017-11-20T02:07:56.976Z,64.04
2017-11-20T02:08:56.971Z,63.82
2017-11-20T02:09:56.962Z,63.95
2017-11-20T02:10:56.956Z,64.23
2017-11-20T02:11:56.950Z,64.23
2017-11-20T02:12:56.942Z,64.11
2017-11-20T02:13:56.937Z,64.04
2017-11-20T02:14:56.933Z,64.01
2017-11-20T02:15:56.924Z,64.42
2017-11-20T02:16:56.924Z,64.23
2017-11-20T02:17:56.913Z,63.95
2017-11-20T02:18:56.906Z,64.23
2017-11-20T02:19:56.899Z,64.14
2017-11-20T02:20:56.894Z,64.42
2017-11-20T02:21:56.886Z,64.61
2017-11-20T02:22:56.881Z,64.52
2017-11-20T02:23:56.874Z,64.23
2017-11-20T02:24:56.867Z,65.09
2017-11-20T02:25:56.861Z,65.56
2017-11-20T02:26:56.855Z,65.56
2017-11-20T02:27:56.848Z,65.15
2017-11-20T02:28:56.842Z,65.06
2017-11-20T02:29:56.836Z,65.09
2017-11-20T02:30:56.830Z,65.25
2017-11-20T02:31:56.823Z,65.44
2017-11-20T02:32:56.819Z,65.37
2017-11-20T02:33:56.810Z,66.03
2017-11-20T02:34:56.806Z,66.32
2017-11-20T02:35:56.798Z,66.00
2017-11-20T02:36:56.793Z,66.57
2017-11-20T02:37:56.787Z,66.57
2017-11-20T02:38:56.779Z,66.60
2017-11-20T02:39:56.772Z,67.14
2017-11-20T02:40:56.766Z,66.57
2017-11-20T02:41:56.759Z,66.89
2017-11-20T02:42:56.752Z,66.86
2017-11-20T02:43:56.745Z,66.95
2017-11-20T02:44:56.740Z,67.05
2017-11-20T02:45:56.734Z,66.89
2017-11-20T02:46:56.728Z,66.67
2017-11-20T02:47:56.727Z,67.46
2017-11-20T02:48:56.715Z,66.95
2017-11-20T02:49:56.708Z,67.46
2017-11-20T02:50:56.703Z,66.86
2017-11-20T02:51:56.704Z,67.36
2017-11-20T02:52:56.689Z,67.71
2017-11-20T02:53:56.683Z,67.61
2017-11-20T02:54:56.678Z,66.89
2017-11-20T02:55:56.670Z,66.86
2017-11-20T02:56:56.666Z,67.65
2017-11-20T02:57:56.655Z,67.71
2017-11-20T02:58:56.648Z,67.99
2017-11-20T02:59:56.645Z,68.08
2017-11-20T03:00:56.636Z,68.21
2017-11-20T03:01:56.631Z,67.99
2017-11-20T03:02:56.630Z,68.12
2017-11-20T03:03:56.618Z,68.37
2017-11-20T03:04:56.611Z,68.75
2017-11-20T03:05:56.603Z,69.03
2017-11-20T03:06:56.597Z,69.07
2017-11-20T03:07:56.596Z,69.03
2017-11-20T03:08:56.585Z,69.41
2017-11-20T03:09:56.577Z,69.13
2017-11-20T03:10:56.571Z,69.13
2017-11-20T03:11:56.566Z,69.60
2017-11-20T03:12:56.559Z,69.32
2017-11-20T03:13:56.552Z,69.41
2017-11-20T03:14:56.552Z,69.70
2017-11-20T03:15:56.540Z,69.51
2017-11-20T03:16:56.534Z,69.51
2017-11-20T03:17:56.526Z,69.98
2017-11-20T03:18:56.520Z,69.89
2017-11-20T03:19:56.514Z,70.26
2017-11-20T03:20:56.558Z,70.26
2017-11-20T03:21:56.500Z,69.98
2017-11-20T03:22:56.494Z,69.98
2017-11-20T03:23:56.487Z,70.07
2017-11-20T03:24:56.482Z,70.17
2017-11-20T03:25:56.475Z,70.45
2017-11-20T03:26:56.468Z,69.98
2017-11-20T03:27:56.512Z,70.74
2017-11-20T03:28:56.455Z,70.17
2017-11-20T03:29:56.449Z,69.89
2017-11-20T03:30:56.443Z,70.55
2017-11-20T03:31:56.436Z,70.64
2017-11-20T03:32:56.430Z,70.83
2017-11-20T03:33:56.423Z,70.07
2017-11-20T03:34:56.416Z,69.98
2017-11-20T03:35:56.409Z,69.89
2017-11-20T03:36:56.403Z,70.07
2017-11-20T03:37:56.396Z,70.74
2017-11-20T03:38:56.390Z,71.12
2017-11-20T03:39:56.383Z,70.93
2017-11-20T03:40:56.378Z,71.12
2017-11-20T03:41:56.370Z,71.21
2017-11-20T03:42:56.363Z,71.88
2017-11-20T03:43:56.358Z,71.78
2017-11-20T03:44:56.350Z,71.88
2017-11-20T03:45:56.344Z,71.21
2017-11-20T03:46:56.338Z,72.06
2017-11-20T03:47:56.331Z,72.25
2017-11-20T03:48:56.326Z,72.06
2017-11-20T03:49:56.318Z,72.63
2017-11-20T03:50:56.315Z,72.63
2017-11-20T03:51:56.305Z,72.73
2017-11-20T03:52:56.300Z,72.82
2017-11-20T03:53:56.290Z,73.20
2017-11-20T03:54:56.285Z,73.39
2017-11-20T03:55:56.281Z,73.01
2017-11-20T03:56:56.273Z,73.39
2017-11-20T03:57:56.266Z,73.49
2017-11-20T03:58:56.260Z,73.49
2017-11-20T03:59:56.253Z,73.68
2017-11-20T04:00:56.247Z,73.68
2017-11-20T04:01:56.241Z,73.68
2017-11-20T04:02:56.235Z,74.43
2017-11-20T04:03:56.230Z,74.24
2017-11-20T04:04:56.219Z,74.62
2017-11-20T04:05:56.219Z,75.09
2017-11-20T04:06:56.206Z,75.19
2017-11-20T04:07:56.203Z,75.00
2017-11-20T04:08:56.193Z,75.47
2017-11-20T04:09:56.187Z,75.38
2017-11-20T04:10:56.185Z,75.95
2017-11-20T04:11:56.223Z,75.85
2017-11-20T04:12:56.166Z,76.14
2017-11-20T04:13:56.159Z,76.32
2017-11-20T04:14:56.154Z,76.04
2017-11-20T04:15:56.147Z,76.04
2017-11-20T04:16:56.141Z,76.14
2017-11-20T04:17:56.132Z,76.14
2017-11-20T04:18:56.127Z,76.14
2017-11-20T04:19:56.120Z,76.61
2017-11-20T04:20:56.113Z,76.61
2017-11-20T04:21:56.107Z,76.70
2017-11-20T04:22:56.100Z,76.80
2017-11-20T04:23:56.093Z,76.51
2017-11-20T04:24:56.086Z,76.80
2017-11-20T04:25:56.078Z,76.80
2017-11-20T04:26:56.078Z,76.51
2017-11-20T04:27:56.066Z,76.42
2017-11-20T04:28:56.059Z,76.89
2017-11-20T04:29:56.053Z,77.18
2017-11-20T04:30:56.045Z,77.75
2017-11-20T04:31:56.038Z,77.46
2017-11-20T04:32:56.032Z,77.75
2017-11-20T04:33:56.024Z,76.99
2017-11-20T04:34:56.017Z,77.46
2017-11-20T04:35:56.013Z,78.03
2017-11-20T04:36:56.006Z,78.03
2017-11-20T04:37:55.997Z,78.03
2017-11-20T04:38:55.991Z,78.31
2017-11-20T04:39:55.984Z,78.41
2017-11-20T04:40:55.978Z,78.27
2017-11-20T04:41:55.974Z,78.46
2017-11-20T04:42:55.964Z,79.03
2017-11-20T04:43:55.960Z,79.17
2017-11-20T04:44:55.951Z,79.41
2017-11-20T04:45:55.943Z,79.13
2017-11-20T04:46:55.938Z,79.60
2017-11-20T04:47:55.930Z,79.32
2017-11-20T04:48:55.923Z,79.41
2017-11-20T04:49:55.915Z,80.26
2017-11-20T04:50:55.908Z,80.26
2017-11-20T04:51:55.907Z,80.45
2017-11-20T04:52:55.896Z,80.55
2017-11-20T04:53:55.887Z,80.83
2017-11-20T04:54:55.881Z,80.93
2017-11-20T04:55:55.896Z,80.64
2017-11-20T04:56:55.871Z,81.30
2017-11-20T04:57:55.860Z,81.49
2017-11-20T04:58:55.895Z,81.21
2017-11-20T04:59:55.846Z,81.59
2017-11-20T05:00:55.840Z,81.87
2017-11-20T05:01:55.832Z,81.77
2017-11-20T05:02:55.825Z,81.77
2017-11-20T05:03:55.819Z,81.68
2017-11-20T05:04:55.812Z,81.30
2017-11-20T05:05:55.803Z,81.68
2017-11-20T05:06:55.815Z,81.96
2017-11-20T05:07:55.790Z,82.53
2017-11-20T05:08:55.783Z,82.63
2017-11-20T05:09:55.776Z,82.25
2017-11-20T05:10:55.769Z,82.25
2017-11-20T05:11:55.762Z,82.34
2017-11-20T05:12:55.804Z,83.01
2017-11-20T05:13:55.746Z,82.25
2017-11-20T05:14:55.741Z,82.25
2017-11-20T05:15:55.734Z,82.91
2017-11-20T05:16:55.778Z,82.72
2017-11-20T05:17:55.723Z,82.53
2017-11-20T05:18:55.713Z,82.91
2017-11-20T05:19:55.706Z,82.82
2017-11-20T05:20:55.700Z,83.48
2017-11-20T05:21:55.691Z,83.39
2017-11-20T05:22:55.684Z,83.10
2017-11-20T05:23:55.677Z,83.10
2017-11-20T05:24:55.671Z,82.44
2017-11-20T05:25:55.663Z,82.91
2017-11-20T05:26:55.657Z,82.82
2017-11-20T05:27:55.650Z,82.82
2017-11-20T05:28:55.643Z,82.63
2017-11-20T05:29:55.635Z,82.82
2017-11-20T05:30:55.630Z,82.72
2017-11-20T05:31:55.622Z,82.72
2017-11-20T05:32:55.614Z,82.91
2017-11-20T05:33:55.614Z,82.91
2017-11-20T05:34:55.604Z,83.10
2017-11-20T05:35:55.593Z,83.01
2017-11-20T05:36:55.638Z,82.72
2017-11-20T05:37:55.578Z,82.82
2017-11-20T05:38:55.572Z,82.72
2017-11-20T05:39:55.564Z,83.10
2017-11-20T05:40:55.558Z,82.63
2017-11-20T05:41:55.550Z,82.82
2017-11-20T05:42:55.544Z,82.72
2017-11-20T05:43:55.537Z,82.53
2017-11-20T05:44:55.532Z,82.91
2017-11-20T05:45:55.522Z,82.53
2017-11-20T05:46:55.516Z,83.01
2017-11-20T05:47:55.509Z,81.96
2017-11-20T05:48:55.503Z,81.40
2017-11-20T05:49:55.495Z,81.40
2017-11-20T05:50:55.489Z,81.12
2017-11-20T05:51:55.482Z,81.12
2017-11-20T05:52:55.475Z,81.21
2017-11-20T05:53:55.467Z,81.40
2017-11-20T05:54:55.466Z,81.21
2017-11-20T05:55:55.456Z,81.59
2017-11-20T05:56:55.448Z,81.12
2017-11-20T05:57:55.441Z,81.21
2017-11-20T05:58:55.434Z,81.68
2017-11-20T05:59:55.427Z,82.25
2017-11-20T06:00:55.420Z,81.87
2017-11-20T06:01:55.415Z,82.34
2017-11-20T06:02:55.410Z,82.34
2017-11-20T06:03:55.399Z,82.82
2017-11-20T06:04:55.392Z,83.01
2017-11-20T06:05:55.386Z,82.68
2017-11-20T06:06:55.379Z,83.29
2017-11-20T06:07:55.373Z,83.06
2017-11-20T06:08:55.366Z,82.78
2017-11-20T06:09:55.357Z,83.06
2017-11-20T06:10:55.352Z,83.06
2017-11-20T06:11:55.345Z,83.44
2017-11-20T06:12:55.339Z,82.97
2017-11-20T06:13:55.334Z,83.15
2017-11-20T06:14:55.325Z,83.63
2017-11-20T06:15:55.318Z,83.44
2017-11-20T06:16:55.334Z,83.72
2017-11-20T06:17:55.304Z,84.10
2017-11-20T06:18:55.299Z,83.91
2017-11-20T06:19:55.292Z,84.01
2017-11-20T06:20:55.285Z,83.72
2017-11-20T06:21:55.277Z,83.82
2017-11-20T06:22:55.320Z,83.72
2017-11-20T06:23:55.264Z,82.97
2017-11-20T06:24:55.263Z,83.06
2017-11-20T06:25:55.250Z,83.15
2017-11-20T06:26:55.242Z,83.82
2017-11-20T06:27:55.237Z,83.91
2017-11-20T06:28:55.231Z,84.20
2017-11-20T06:29:55.221Z,84.10
2017-11-20T06:30:55.216Z,83.82
2017-11-20T06:31:55.209Z,83.91
2017-11-20T06:32:55.205Z,84.20
2017-11-20T06:33:55.196Z,84.01
2017-11-20T06:34:55.188Z,84.01
2017-11-20T06:35:55.181Z,83.91
2017-11-20T06:36:55.177Z,84.10
2017-11-20T06:37:55.168Z,83.72
2017-11-20T06:38:55.162Z,84.58
2017-11-20T06:39:55.157Z,84.77
2017-11-20T06:40:55.157Z,84.67
2017-11-20T06:41:55.142Z,84.77
2017-11-20T06:42:55.139Z,85.99
2017-11-20T06:43:55.128Z,85.33
2017-11-20T06:44:55.121Z,85.90
2017-11-20T06:45:55.114Z,85.33
2017-11-20T06:46:55.108Z,85.52
2017-11-20T06:47:55.110Z,85.61
2017-11-20T06:48:55.094Z,85.52
2017-11-20T06:49:55.086Z,86.28
2017-11-20T06:50:55.080Z,86.09
2017-11-20T06:51:55.075Z,85.90
2017-11-20T06:52:55.094Z,86.09
2017-11-20T06:53:55.059Z,85.42
2017-11-20T06:54:55.052Z,85.80
2017-11-20T06:55:55.046Z,86.18
2017-11-20T06:56:55.039Z,86.09
2017-11-20T06:57:55.032Z,85.42
2017-11-20T06:58:55.025Z,85.71
2017-11-20T06:59:55.027Z,86.28
2017-11-20T07:00:55.012Z,85.99
2017-11-20T07:01:55.003Z,85.61
2017-11-20T07:02:54.997Z,85.90
2017-11-20T07:03:55.042Z,85.52
2017-11-20T07:04:54.985Z,85.33
2017-11-20T07:05:54.977Z,84.67
2017-11-20T07:06:54.971Z,84.58
2017-11-20T07:07:54.962Z,84.48
2017-11-20T07:08:54.957Z,85.52
2017-11-20T07:09:54.949Z,85.71
2017-11-20T07:10:54.944Z,85.42
2017-11-20T07:11:54.940Z,85.24
2017-11-20T07:12:54.932Z,85.42
2017-11-20T07:13:54.924Z,85.42
2017-11-20T07:14:54.923Z,84.86
2017-11-20T07:15:54.910Z,84.95
2017-11-20T07:16:54.906Z,84.58
2017-11-20T07:17:54.896Z,84.58
2017-11-20T07:18:54.889Z,84.86
2017-11-20T07:19:54.883Z,85.80
2017-11-20T07:20:54.876Z,85.99
2017-11-20T07:21:54.868Z,85.90
2017-11-20T07:22:54.860Z,86.18
2017-11-20T07:23:54.861Z,85.61
2017-11-20T07:24:54.851Z,85.71
2017-11-20T07:25:54.841Z,85.90
2017-11-20T07:26:54.834Z,85.90
2017-11-20T07:27:54.827Z,85.24
2017-11-20T07:28:54.820Z,85.24
2017-11-20T07:29:54.813Z,84.77
2017-11-20T07:30:54.806Z,84.86
2017-11-20T07:31:54.800Z,84.77
2017-11-20T07:32:54.795Z,85.14
2017-11-20T07:33:54.785Z,85.14
2017-11-20T07:34:54.779Z,85.42
2017-11-20T07:35:54.773Z,84.77
2017-11-20T07:36:54.767Z,84.01
2017-11-20T07:37:54.760Z,83.72
2017-11-20T07:38:54.753Z,83.91
2017-11-20T07:39:54.746Z,84.20
2017-11-20T07:40:54.739Z,84.10
2017-11-20T07:41:54.733Z,83.82
2017-11-20T07:42:54.726Z,83.44
2017-11-20T07:43:54.720Z,83.25
2017-11-20T07:44:54.713Z,83.34
2017-11-20T07:45:54.706Z,83.53
2017-11-20T07:46:54.698Z,84.01
2017-11-20T07:47:54.694Z,84.10
2017-11-20T07:48:54.686Z,84.01
2017-11-20T07:49:54.678Z,84.29
2017-11-20T07:50:54.672Z,84.20
2017-11-20T07:51:54.669Z,84.01
2017-11-20T07:52:54.660Z,83.63
2017-11-20T07:53:54.653Z,84.01
2017-11-20T07:54:54.645Z,83.06
2017-11-20T07:55:54.638Z,82.50
2017-11-20T07:56:54.634Z,81.87
2017-11-20T07:57:54.625Z,82.15
2017-11-20T07:58:54.618Z,81.68
2017-11-20T07:59:54.613Z,81.59
2017-11-20T08:00:54.607Z,81.59
2017-11-20T08:01:54.598Z,81.87
2017-11-20T08:02:54.593Z,81.77
2017-11-20T08:03:54.585Z,81.96
2017-11-20T08:04:54.603Z,81.96
2017-11-20T08:05:54.573Z,82.06
2017-11-20T08:06:54.566Z,81.59
2017-11-20T08:07:54.572Z,81.21
2017-11-20T08:08:54.554Z,81.21
2017-11-20T08:09:54.546Z,81.40
2017-11-20T08:10:54.540Z,81.40
2017-11-20T08:11:55.448Z,81.12
2017-11-20T08:12:54.542Z,81.96
2017-11-20T08:13:54.519Z,81.21
2017-11-20T08:14:54.514Z,81.40
2017-11-20T08:15:54.508Z,81.49
2017-11-20T08:16:54.502Z,81.77
2017-11-20T08:17:54.494Z,81.21
2017-11-20T08:18:54.489Z,81.49
2017-11-20T08:19:54.483Z,81.12
2017-11-20T08:20:54.477Z,80.83
2017-11-20T08:21:54.470Z,79.98
2017-11-20T08:22:54.464Z,80.36
2017-11-20T08:23:54.458Z,79.88
2017-11-20T08:24:54.452Z,80.55
2017-11-20T08:25:54.444Z,80.17
2017-11-20T08:26:54.439Z,80.17
2017-11-20T08:27:54.434Z,80.17
2017-11-20T08:28:54.428Z,80.36
2017-11-20T08:29:54.420Z,80.45
2017-11-20T08:30:54.415Z,80.17
2017-11-20T08:31:54.409Z,80.64
2017-11-20T08:32:54.402Z,80.93
2017-11-20T08:33:54.395Z,80.93
2017-11-20T08:34:54.390Z,80.36
2017-11-20T08:35:54.385Z,80.93
2017-11-20T08:36:54.378Z,81.40
2017-11-20T08:37:54.371Z,81.12
2017-11-20T08:38:54.366Z,81.77
2017-11-20T08:39:54.364Z,82.06
2017-11-20T08:40:54.354Z,81.87
2017-11-20T08:41:54.346Z,81.68
2017-11-20T08:42:54.340Z,81.21
2017-11-20T08:43:54.335Z,81.40
2017-11-20T08:44:54.330Z,81.68
2017-11-20T08:45:54.323Z,81.96
2017-11-20T08:46:54.316Z,81.77
2017-11-20T08:47:54.309Z,81.49
2017-11-20T08:48:54.306Z,81.68
2017-11-20T08:49:54.298Z,81.40
2017-11-20T08:50:54.293Z,80.36
2017-11-20T08:51:54.286Z,80.55
2017-11-20T08:52:54.280Z,81.02
2017-11-20T08:53:54.274Z,81.12
2017-11-20T08:54:54.275Z,81.21
2017-11-20T08:55:54.261Z,81.40
2017-11-20T08:56:54.256Z,80.83
2017-11-20T08:57:54.300Z,80.83
2017-11-20T08:58:54.243Z,80.17
2017-11-20T08:59:54.287Z,80.45
2017-11-20T09:00:54.231Z,80.93
2017-11-20T09:01:54.225Z,80.45
2017-11-20T09:02:54.220Z,80.74
2017-11-20T09:03:54.213Z,80.93
2017-11-20T09:04:54.208Z,80.64
2017-11-20T09:05:54.209Z,80.07
2017-11-20T09:06:54.196Z,79.41
2017-11-20T09:07:54.189Z,79.45
2017-11-20T09:08:54.182Z,79.26
2017-11-20T09:09:54.478Z,79.13
2017-11-20T09:10:54.171Z,78.98
2017-11-20T09:11:54.166Z,79.36
2017-11-20T09:12:54.159Z,79.41
2017-11-20T09:13:54.152Z,78.98
2017-11-20T09:14:54.398Z,79.17
2017-11-20T09:15:54.148Z,79.07
2017-11-20T09:16:54.136Z,79.07
2017-11-20T09:17:54.179Z,78.50
2017-11-20T09:18:54.124Z,78.50
2017-11-20T09:19:54.117Z,79.07
2017-11-20T09:20:54.114Z,78.69
2017-11-20T09:21:54.106Z,78.13
2017-11-20T09:22:54.101Z,77.84
2017-11-20T09:23:54.095Z,77.75
2017-11-20T09:24:54.091Z,77.46
2017-11-20T09:25:54.087Z,76.99
2017-11-20T09:26:54.078Z,77.08
2017-11-20T09:27:54.072Z,77.84
2017-11-20T09:28:54.068Z,78.88
2017-11-20T09:29:54.061Z,78.22
2017-11-20T09:30:54.057Z,78.03
2017-11-20T09:31:54.050Z,78.03
2017-11-20T09:32:54.046Z,77.46
2017-11-20T09:33:54.039Z,77.84
2017-11-20T09:34:54.033Z,78.59
2017-11-20T09:35:54.029Z,78.22
2017-11-20T09:36:54.023Z,78.41
2017-11-20T09:37:54.017Z,78.31
2017-11-20T09:38:54.012Z,77.65
2017-11-20T09:39:54.007Z,77.56
2017-11-20T09:40:54.051Z,77.84
2017-11-20T09:41:53.995Z,78.59
2017-11-20T09:42:53.989Z,78.41
2017-11-20T09:43:53.985Z,78.13
2017-11-20T09:44:53.980Z,77.94
2017-11-20T09:45:53.974Z,77.31
2017-11-20T09:46:53.970Z,78.22
2017-11-20T09:47:53.963Z,78.35
2017-11-20T09:48:53.958Z,77.18
2017-11-20T09:49:53.953Z,77.59
2017-11-20T09:50:53.948Z,77.31
2017-11-20T09:51:53.942Z,77.50
2017-11-20T09:52:53.943Z,77.50
2017-11-20T09:53:53.932Z,77.31
2017-11-20T09:54:53.931Z,77.59
2017-11-20T09:55:53.920Z,77.78
2017-11-20T09:56:53.916Z,78.16
2017-11-20T09:57:53.909Z,77.31
2017-11-20T09:58:53.907Z,77.03
2017-11-20T09:59:53.906Z,77.40
2017-11-20T10:00:53.894Z,77.50
2017-11-20T10:01:53.888Z,77.50
2017-11-20T10:02:53.896Z,77.22
2017-11-20T10:03:53.879Z,76.93
2017-11-20T10:04:53.924Z,77.31
2017-11-20T10:05:53.867Z,77.03
2017-11-20T10:06:53.864Z,77.50
2017-11-20T10:07:53.857Z,77.50
2017-11-20T10:08:53.852Z,76.84
2017-11-20T10:09:53.847Z,76.93
2017-11-20T10:10:53.841Z,77.59
2017-11-20T10:11:53.837Z,77.31
2017-11-20T10:12:53.831Z,77.40
2017-11-20T10:13:53.827Z,76.84
2017-11-20T10:14:53.820Z,76.93
2017-11-20T10:15:53.815Z,76.74
2017-11-20T10:16:53.811Z,77.03
2017-11-20T10:17:53.804Z,77.03
2017-11-20T10:18:53.806Z,76.84
2017-11-20T10:19:53.795Z,76.65
2017-11-20T10:20:53.791Z,76.65
2017-11-20T10:21:53.784Z,75.98
2017-11-20T10:22:53.779Z,75.89
2017-11-20T10:23:53.776Z,75.42
2017-11-20T10:24:53.770Z,75.60
2017-11-20T10:25:53.765Z,75.60
2017-11-20T10:26:53.760Z,75.51
2017-11-20T10:27:53.756Z,75.60
2017-11-20T10:28:53.751Z,75.89
2017-11-20T10:29:53.744Z,76.84
2017-11-20T10:30:53.741Z,76.84
2017-11-20T10:31:53.733Z,76.84
2017-11-20T10:32:53.729Z,76.74
2017-11-20T10:33:53.724Z,76.55
2017-11-20T10:34:53.719Z,76.84
2017-11-20T10:35:53.737Z,75.79
2017-11-20T10:36:53.759Z,75.04
2017-11-20T10:37:53.704Z,75.23
2017-11-20T10:38:53.700Z,75.51
2017-11-20T10:39:53.694Z,76.17
2017-11-20T10:40:53.695Z,76.17
2017-11-20T10:41:53.685Z,76.65
2017-11-20T10:42:53.680Z,76.17
2017-11-20T10:43:53.675Z,75.70
2017-11-20T10:44:53.672Z,76.03
2017-11-20T10:45:53.668Z,76.97
2017-11-20T10:46:53.660Z,76.68
2017-11-20T10:47:53.656Z,76.03
2017-11-20T10:48:53.651Z,75.17
2017-11-20T10:49:53.697Z,74.41
2017-11-20T10:50:53.642Z,73.84
2017-11-20T10:51:53.688Z,73.94
2017-11-20T10:52:53.633Z,73.75
2017-11-20T10:53:53.633Z,73.27
2017-11-20T10:54:53.623Z,73.84
2017-11-20T10:55:53.619Z,74.32
2017-11-20T10:56:53.615Z,74.79
2017-11-20T10:57:53.609Z,74.51
2017-11-20T10:58:53.604Z,75.26
2017-11-20T10:59:53.601Z,74.98
2017-11-20T11:00:53.595Z,73.84
2017-11-20T11:01:53.590Z,73.27
2017-11-20T11:02:53.587Z,73.08
2017-11-20T11:03:53.585Z,73.27
2017-11-20T11:04:53.577Z,72.89
2017-11-20T11:05:53.572Z,72.89
2017-11-20T11:06:53.574Z,72.99
2017-11-20T11:07:53.564Z,72.52
2017-11-20T11:08:53.559Z,71.66
2017-11-20T11:09:53.553Z,71.47
2017-11-20T11:10:53.550Z,71.47
2017-11-20T11:11:53.545Z,70.62
2017-11-20T11:12:53.540Z,71.19
2017-11-20T11:13:53.534Z,71.28
2017-11-20T11:14:53.531Z,72.23
2017-11-20T11:15:53.526Z,72.33
2017-11-20T11:16:53.523Z,73.18
2017-11-20T11:17:53.516Z,73.27
2017-11-20T11:18:53.510Z,73.46
2017-11-20T11:19:53.515Z,72.52
2017-11-20T11:20:53.503Z,72.42
2017-11-20T11:21:53.497Z,73.46
2017-11-20T11:22:53.492Z,74.51
2017-11-20T11:23:53.489Z,72.99
2017-11-20T11:24:53.483Z,73.18
2017-11-20T11:25:53.480Z,73.84
2017-11-20T11:26:53.475Z,73.27
2017-11-20T11:27:53.469Z,72.89
2017-11-20T11:28:53.466Z,73.27
2017-11-20T11:29:53.460Z,73.56
2017-11-20T11:30:53.455Z,73.08
2017-11-20T11:31:53.500Z,73.56
2017-11-20T11:32:53.449Z,73.27
2017-11-20T11:33:53.441Z,71.95
2017-11-20T11:34:53.436Z,72.52
2017-11-20T11:35:53.432Z,72.23
2017-11-20T11:36:53.458Z,71.47
2017-11-20T11:37:53.423Z,71.19
2017-11-20T11:38:53.417Z,71.76
2017-11-20T11:39:53.414Z,71.19
2017-11-20T11:40:53.409Z,70.62
2017-11-20T11:41:53.403Z,70.81
2017-11-20T11:42:53.398Z,70.56
2017-11-20T11:43:53.395Z,70.24
2017-11-20T11:44:53.398Z,70.53
2017-11-20T11:45:53.386Z,71.28
2017-11-20T11:46:53.381Z,71.57
2017-11-20T11:47:53.377Z,72.14
2017-11-20T11:48:53.373Z,72.71
2017-11-20T11:49:53.366Z,72.89
2017-11-20T11:50:53.364Z,72.33
2017-11-20T11:51:53.409Z,72.80
2017-11-20T11:52:53.354Z,71.57
2017-11-20T11:53:53.349Z,71.57
2017-11-20T11:54:53.345Z,71.76
2017-11-20T11:55:53.341Z,71.38
2017-11-20T11:56:53.337Z,71.00
2017-11-20T11:57:53.330Z,71.47
2017-11-20T11:58:53.326Z,71.57
2017-11-20T11:59:53.322Z,71.66
2017-11-20T12:00:53.316Z,71.47
2017-11-20T12:01:53.311Z,71.76
2017-11-20T12:02:53.307Z,71.28
2017-11-20T12:03:53.301Z,70.72
2017-11-20T12:04:53.296Z,71.09
2017-11-20T12:05:53.293Z,71.47
2017-11-20T12:06:53.288Z,69.96
2017-11-20T12:07:53.286Z,70.34
2017-11-20T12:08:53.277Z,70.72
2017-11-20T12:09:53.271Z,69.57
2017-11-20T12:10:53.268Z,69.10
2017-11-20T12:11:53.263Z,70.05
2017-11-20T12:12:53.259Z,70.72
2017-11-20T12:13:53.252Z,70.43
2017-11-20T12:14:53.248Z,70.15
2017-11-20T12:15:53.243Z,70.05
2017-11-20T12:16:53.239Z,69.10
2017-11-20T12:17:53.233Z,68.91
2017-11-20T12:18:53.229Z,68.44
2017-11-20T12:19:53.226Z,68.95
2017-11-20T12:20:53.220Z,68.82
2017-11-20T12:21:53.214Z,68.91
2017-11-20T12:22:53.211Z,69.01
2017-11-20T12:23:53.205Z,69.57
2017-11-20T12:24:53.200Z,69.29
2017-11-20T12:25:53.197Z,68.63
2017-11-20T12:26:53.190Z,69.20
2017-11-20T12:27:53.238Z,69.86
2017-11-20T12:28:53.182Z,69.77
2017-11-20T12:29:53.176Z,70.05
2017-11-20T12:30:53.172Z,68.54
2017-11-20T12:31:53.167Z,67.96
2017-11-20T12:32:53.163Z,68.63
2017-11-20T12:33:53.158Z,69.61
2017-11-20T12:34:53.154Z,69.29
2017-11-20T12:35:53.149Z,68.82
2017-11-20T12:36:53.146Z,68.63
2017-11-20T12:37:53.139Z,67.87
2017-11-20T12:38:53.136Z,67.40
2017-11-20T12:39:53.140Z,67.68
2017-11-20T12:40:53.126Z,67.96
2017-11-20T12:41:53.121Z,69.96
2017-11-20T12:42:53.116Z,69.48
2017-11-20T12:43:53.113Z,70.15
2017-11-20T12:44:53.108Z,69.57
2017-11-20T12:45:53.102Z,68.38
2017-11-20T12:46:53.099Z,68.25
2017-11-20T12:47:53.095Z,67.05
2017-11-20T12:48:53.089Z,65.72
2017-11-20T12:49:53.092Z,66.29
2017-11-20T12:50:53.081Z,65.25
2017-11-20T12:51:53.077Z,63.92
2017-11-20T12:52:53.073Z,63.51